UAL2692 KSTL-KEWR
Flight info
| Callsign | UAL2692 |
|---|---|
| Flight time | 1h 50m |
| Altitude | 39000 |
| Route | JHART7 RINTE DORET J584 SLT FQM3 |
| Aircraft | B77L/H-SDE1E2E3FGHIJ2J3J4J5M1RWXY/LB1D1 |
Departure
| Time | 2026-05-05 04:20 |
|---|---|
| Airport | St. Louis Lambert International Airport (KSTL) |
Arrival
| Time | 2026-05-05 06:10 |
|---|---|
| Airport | Newark Liberty International Airport (KEWR) |
| Time | Latitude | Longitude | Altitude | Speed | Heading |
|---|---|---|---|---|---|
| 2026-05-05 04:01 | 38.74180 | -90.36058 | 622 ft | 0 kts | 195° |
| 2026-05-05 04:06 | 38.74187 | -90.36056 | 632 ft | 2 kts | 193° |
| 2026-05-05 04:06 | 38.74206 | -90.36051 | 632 ft | 3 kts | 188° |
| 2026-05-05 04:07 | 38.74219 | -90.36048 | 632 ft | 2 kts | 192° |
| 2026-05-05 04:07 | 38.74235 | -90.36042 | 628 ft | 3 kts | 221° |
| 2026-05-05 04:07 | 38.74244 | -90.36026 | 635 ft | 3 kts | 277° |
| 2026-05-05 04:07 | 38.74238 | -90.36003 | 632 ft | 3 kts | 299° |
| 2026-05-05 04:08 | 38.74228 | -90.35983 | 621 ft | 2 kts | 302° |
| 2026-05-05 04:08 | 38.74225 | -90.35976 | 635 ft | 0 kts | 302° |
| 2026-05-05 04:14 | 38.74254 | -90.36034 | 635 ft | 18 kts | 302° |
| 2026-05-05 04:14 | 38.74331 | -90.36190 | 635 ft | 20 kts | 302° |
| 2026-05-05 04:14 | 38.74408 | -90.36344 | 634 ft | 20 kts | 302° |
| 2026-05-05 04:15 | 38.74484 | -90.36499 | 634 ft | 21 kts | 302° |
| 2026-05-05 04:15 | 38.74561 | -90.36656 | 630 ft | 21 kts | 302° |
| 2026-05-05 04:15 | 38.74635 | -90.36812 | 634 ft | 20 kts | 301° |
| 2026-05-05 04:15 | 38.74711 | -90.36965 | 634 ft | 21 kts | 302° |
| 2026-05-05 04:16 | 38.74790 | -90.37125 | 630 ft | 22 kts | 302° |
| 2026-05-05 04:16 | 38.74863 | -90.37300 | 627 ft | 22 kts | 291° |
| 2026-05-05 04:16 | 38.74936 | -90.37478 | 632 ft | 24 kts | 302° |
| 2026-05-05 04:16 | 38.75025 | -90.37654 | 634 ft | 24 kts | 303° |
| 2026-05-05 04:17 | 38.75114 | -90.37831 | 631 ft | 23 kts | 302° |
| 2026-05-05 04:17 | 38.75195 | -90.37989 | 634 ft | 17 kts | 318° |
| 2026-05-05 04:17 | 38.75289 | -90.37981 | 626 ft | 17 kts | 28° |
| 2026-05-05 04:17 | 38.75360 | -90.37866 | 628 ft | 17 kts | 101° |
| 2026-05-05 04:18 | 38.75342 | -90.37817 | 630 ft | 0 kts | 122° |
| 2026-05-05 04:19 | 38.75341 | -90.37816 | 630 ft | 3 kts | 122° |
| 2026-05-05 04:19 | 38.75211 | -90.37555 | 631 ft | 82 kts | 123° |
| 2026-05-05 04:20 | 38.74731 | -90.36575 | 640 ft | 173 kts | 124° |
| 2026-05-05 04:20 | 38.74025 | -90.35120 | 1309 ft | 204 kts | 127° |
| 2026-05-05 04:20 | 38.73423 | -90.33512 | 2345 ft | 206 kts | 107° |
| 2026-05-05 04:20 | 38.73254 | -90.31634 | 3192 ft | 217 kts | 101° |
| 2026-05-05 04:21 | 38.73076 | -90.29639 | 3839 ft | 238 kts | 101° |
| 2026-05-05 04:21 | 38.72873 | -90.27434 | 4416 ft | 259 kts | 100° |
| 2026-05-05 04:21 | 38.72698 | -90.25035 | 4937 ft | 280 kts | 94° |
| 2026-05-05 04:21 | 38.72669 | -90.22467 | 5399 ft | 301 kts | 91° |
| 2026-05-05 04:22 | 38.72674 | -90.19720 | 5976 ft | 317 kts | 90° |
| 2026-05-05 04:22 | 38.72827 | -90.16788 | 6547 ft | 339 kts | 84° |
| 2026-05-05 04:22 | 38.73127 | -90.13750 | 7099 ft | 359 kts | 82° |
| 2026-05-05 04:22 | 38.73484 | -90.10505 | 7766 ft | 374 kts | 81° |
| 2026-05-05 04:23 | 38.73852 | -90.07141 | 8562 ft | 386 kts | 81° |
| 2026-05-05 04:23 | 38.74220 | -90.03669 | 9361 ft | 397 kts | 81° |
| 2026-05-05 04:23 | 38.74579 | -90.00153 | 10102 ft | 405 kts | 81° |
| 2026-05-05 04:23 | 38.74937 | -89.96552 | 10825 ft | 409 kts | 81° |
| 2026-05-05 04:24 | 38.75293 | -89.92896 | 11576 ft | 414 kts | 81° |
| 2026-05-05 04:24 | 38.75649 | -89.89212 | 12336 ft | 419 kts | 81° |
| 2026-05-05 04:24 | 38.76002 | -89.85522 | 13107 ft | 423 kts | 81° |
| 2026-05-05 04:25 | 38.76725 | -89.77942 | 14591 ft | 432 kts | 81° |
| 2026-05-05 04:25 | 38.77090 | -89.74086 | 15325 ft | 436 kts | 81° |
| 2026-05-05 04:25 | 38.77455 | -89.70223 | 16084 ft | 438 kts | 81° |
| 2026-05-05 04:25 | 38.77818 | -89.66368 | 16847 ft | 440 kts | 81° |
| 2026-05-05 04:26 | 38.78185 | -89.62458 | 17643 ft | 441 kts | 81° |
| 2026-05-05 04:26 | 38.78551 | -89.58546 | 18381 ft | 441 kts | 81° |
| 2026-05-05 04:26 | 38.78912 | -89.54670 | 19080 ft | 441 kts | 81° |
| 2026-05-05 04:26 | 38.79277 | -89.50749 | 19810 ft | 439 kts | 81° |
| 2026-05-05 04:27 | 38.79698 | -89.46928 | 20532 ft | 437 kts | 78° |
| 2026-05-05 04:27 | 38.80198 | -89.43082 | 21278 ft | 434 kts | 78° |
| 2026-05-05 04:27 | 38.80716 | -89.39268 | 22035 ft | 430 kts | 77° |
| 2026-05-05 04:27 | 38.81219 | -89.35527 | 22830 ft | 426 kts | 78° |
| 2026-05-05 04:28 | 38.81708 | -89.31799 | 23574 ft | 421 kts | 78° |
| 2026-05-05 04:28 | 38.82182 | -89.28117 | 24248 ft | 415 kts | 78° |
| 2026-05-05 04:28 | 38.82638 | -89.24519 | 24922 ft | 408 kts | 78° |
| 2026-05-05 04:28 | 38.83088 | -89.20954 | 25626 ft | 399 kts | 78° |
| 2026-05-05 04:29 | 38.83522 | -89.17510 | 26310 ft | 390 kts | 78° |
| 2026-05-05 04:29 | 38.83950 | -89.14097 | 27022 ft | 379 kts | 77° |
| 2026-05-05 04:29 | 38.84357 | -89.10849 | 27733 ft | 365 kts | 77° |
| 2026-05-05 04:29 | 38.84749 | -89.07692 | 28429 ft | 349 kts | 77° |
| 2026-05-05 04:30 | 38.85124 | -89.04663 | 28955 ft | 339 kts | 77° |
| 2026-05-05 04:30 | 38.85885 | -88.98605 | 28864 ft | 358 kts | 77° |
| 2026-05-05 04:30 | 38.86289 | -88.95402 | 28784 ft | 370 kts | 77° |
| 2026-05-05 04:31 | 38.86699 | -88.92106 | 28947 ft | 378 kts | 77° |
| 2026-05-05 04:31 | 38.87115 | -88.88741 | 29066 ft | 387 kts | 77° |
| 2026-05-05 04:31 | 38.87544 | -88.85262 | 29186 ft | 397 kts | 77° |
| 2026-05-05 04:31 | 38.87980 | -88.81710 | 29317 ft | 407 kts | 77° |
| 2026-05-05 04:32 | 38.88421 | -88.78112 | 29447 ft | 418 kts | 77° |
| 2026-05-05 04:32 | 38.88877 | -88.74376 | 29575 ft | 429 kts | 77° |
| 2026-05-05 04:32 | 38.89347 | -88.70515 | 29734 ft | 440 kts | 77° |
| 2026-05-05 04:32 | 38.89815 | -88.66648 | 30134 ft | 443 kts | 77° |
| 2026-05-05 04:33 | 38.90289 | -88.62711 | 30559 ft | 444 kts | 77° |
| 2026-05-05 04:33 | 38.90762 | -88.58782 | 30962 ft | 446 kts | 77° |
| 2026-05-05 04:33 | 38.91237 | -88.54839 | 31389 ft | 447 kts | 77° |
| 2026-05-05 04:33 | 38.91711 | -88.50927 | 31821 ft | 448 kts | 76° |
| 2026-05-05 04:34 | 38.92374 | -88.46986 | 32261 ft | 445 kts | 70° |
| 2026-05-05 04:34 | 38.93332 | -88.43223 | 32698 ft | 442 kts | 65° |
| 2026-05-05 04:34 | 38.94388 | -88.39512 | 33146 ft | 442 kts | 64° |
| 2026-05-05 04:34 | 38.95449 | -88.35842 | 33600 ft | 441 kts | 64° |
| 2026-05-05 04:35 | 38.96515 | -88.32144 | 34019 ft | 440 kts | 64° |
| 2026-05-05 04:35 | 38.97574 | -88.28433 | 34422 ft | 439 kts | 64° |
| 2026-05-05 04:35 | 38.98600 | -88.24802 | 34820 ft | 438 kts | 64° |
| 2026-05-05 04:35 | 38.99643 | -88.21081 | 35241 ft | 435 kts | 64° |
| 2026-05-05 04:36 | 39.00650 | -88.17473 | 35636 ft | 433 kts | 64° |
| 2026-05-05 04:36 | 39.01662 | -88.13837 | 36046 ft | 429 kts | 64° |
| 2026-05-05 04:36 | 39.02667 | -88.10219 | 36467 ft | 425 kts | 64° |
| 2026-05-05 04:36 | 39.03646 | -88.06691 | 36887 ft | 419 kts | 64° |
| 2026-05-05 04:37 | 39.04625 | -88.03158 | 37186 ft | 416 kts | 64° |
| 2026-05-05 04:37 | 39.05598 | -87.99653 | 37403 ft | 413 kts | 64° |
| 2026-05-05 04:37 | 39.06567 | -87.96161 | 37509 ft | 414 kts | 64° |
| 2026-05-05 04:38 | 39.08518 | -87.89124 | 37384 ft | 428 kts | 64° |
| 2026-05-05 04:38 | 39.09540 | -87.85431 | 37031 ft | 445 kts | 64° |
| 2026-05-05 04:38 | 39.10577 | -87.81664 | 37030 ft | 453 kts | 65° |
| 2026-05-05 04:39 | 39.12705 | -87.73906 | 37152 ft | 467 kts | 65° |
| 2026-05-05 04:39 | 39.14531 | -87.67247 | 37239 ft | 478 kts | 65° |
| 2026-05-05 04:40 | 39.16767 | -87.59067 | 37363 ft | 491 kts | 65° |
| 2026-05-05 04:40 | 39.19061 | -87.50640 | 37507 ft | 503 kts | 65° |
| 2026-05-05 04:40 | 39.20225 | -87.46346 | 37628 ft | 507 kts | 66° |
| 2026-05-05 04:41 | 39.21394 | -87.42027 | 37864 ft | 508 kts | 66° |
| 2026-05-05 04:41 | 39.22562 | -87.37701 | 38101 ft | 510 kts | 66° |
| 2026-05-05 04:41 | 39.23718 | -87.33414 | 38309 ft | 511 kts | 66° |
| 2026-05-05 04:41 | 39.24887 | -87.29073 | 38509 ft | 511 kts | 66° |
| 2026-05-05 04:42 | 39.26056 | -87.24727 | 38656 ft | 512 kts | 66° |
| 2026-05-05 04:42 | 39.28389 | -87.16045 | 38748 ft | 517 kts | 66° |
| 2026-05-05 04:43 | 39.30739 | -87.07255 | 38750 ft | 514 kts | 66° |
| 2026-05-05 04:43 | 39.33047 | -86.98592 | 38753 ft | 510 kts | 66° |
| 2026-05-05 04:44 | 39.35352 | -86.89917 | 38752 ft | 508 kts | 66° |
| 2026-05-05 04:44 | 39.37637 | -86.81294 | 38764 ft | 508 kts | 66° |
| 2026-05-05 04:45 | 39.39920 | -86.72646 | 38755 ft | 508 kts | 66° |
| 2026-05-05 04:45 | 39.42203 | -86.63965 | 38761 ft | 509 kts | 66° |
| 2026-05-05 04:46 | 39.44467 | -86.55330 | 38761 ft | 510 kts | 67° |
| 2026-05-05 04:46 | 39.46737 | -86.46635 | 38762 ft | 511 kts | 67° |
| 2026-05-05 04:47 | 39.49015 | -86.37879 | 38765 ft | 512 kts | 67° |
| 2026-05-05 04:47 | 39.51279 | -86.29145 | 38771 ft | 513 kts | 67° |
| 2026-05-05 04:48 | 39.53553 | -86.20344 | 38775 ft | 514 kts | 67° |
| 2026-05-05 04:48 | 39.55813 | -86.11565 | 38770 ft | 514 kts | 67° |
| 2026-05-05 04:49 | 39.58064 | -86.02790 | 38774 ft | 514 kts | 67° |
| 2026-05-05 04:49 | 39.60317 | -85.93972 | 38759 ft | 514 kts | 68° |
| 2026-05-05 04:50 | 39.62552 | -85.85207 | 38760 ft | 513 kts | 67° |
| 2026-05-05 04:50 | 39.65288 | -85.76723 | 38764 ft | 507 kts | 59° |
| 2026-05-05 04:51 | 39.68421 | -85.68562 | 38762 ft | 506 kts | 58° |
| 2026-05-05 04:51 | 39.71555 | -85.60421 | 38747 ft | 505 kts | 59° |
| 2026-05-05 04:52 | 39.74671 | -85.52192 | 38755 ft | 505 kts | 59° |
| 2026-05-05 04:52 | 39.77737 | -85.44011 | 38758 ft | 505 kts | 59° |
| 2026-05-05 04:53 | 39.80798 | -85.35810 | 38765 ft | 505 kts | 60° |
| 2026-05-05 04:53 | 39.83878 | -85.27543 | 38762 ft | 506 kts | 60° |
| 2026-05-05 04:54 | 39.86932 | -85.19329 | 38765 ft | 506 kts | 60° |
| 2026-05-05 04:54 | 39.89988 | -85.11086 | 38765 ft | 506 kts | 60° |
| 2026-05-05 04:55 | 39.93056 | -85.02784 | 38781 ft | 507 kts | 60° |
| 2026-05-05 04:55 | 39.96105 | -84.94514 | 38778 ft | 508 kts | 60° |
| 2026-05-05 04:56 | 39.99155 | -84.86216 | 38762 ft | 508 kts | 60° |
| 2026-05-05 04:56 | 40.02201 | -84.77905 | 38757 ft | 508 kts | 60° |
| 2026-05-05 04:57 | 40.05238 | -84.69596 | 38756 ft | 508 kts | 60° |
| 2026-05-05 04:57 | 40.08294 | -84.61210 | 38753 ft | 509 kts | 60° |
| 2026-05-05 04:58 | 40.11313 | -84.52902 | 38751 ft | 509 kts | 60° |
| 2026-05-05 04:58 | 40.14349 | -84.44523 | 38750 ft | 509 kts | 60° |
| 2026-05-05 04:59 | 40.17365 | -84.36174 | 38756 ft | 509 kts | 60° |
| 2026-05-05 04:59 | 40.20374 | -84.27823 | 38759 ft | 509 kts | 60° |
| 2026-05-05 05:00 | 40.23371 | -84.19479 | 38765 ft | 509 kts | 61° |
| 2026-05-05 05:00 | 40.26385 | -84.11065 | 38772 ft | 509 kts | 61° |
| 2026-05-05 05:01 | 40.29462 | -84.02737 | 38778 ft | 506 kts | 56° |
| 2026-05-05 05:01 | 40.33061 | -83.94838 | 38786 ft | 505 kts | 54° |
| 2026-05-05 05:02 | 40.36739 | -83.87018 | 38783 ft | 505 kts | 54° |
| 2026-05-05 05:02 | 40.40424 | -83.79104 | 38780 ft | 506 kts | 54° |
| 2026-05-05 05:03 | 40.44043 | -83.71237 | 38781 ft | 507 kts | 54° |
| 2026-05-05 05:03 | 40.47687 | -83.63266 | 38772 ft | 507 kts | 55° |
| 2026-05-05 05:04 | 40.51310 | -83.55321 | 38765 ft | 508 kts | 55° |
| 2026-05-05 05:04 | 40.54924 | -83.47377 | 38762 ft | 508 kts | 55° |
| 2026-05-05 05:05 | 40.58561 | -83.39367 | 38766 ft | 508 kts | 55° |
| 2026-05-05 05:05 | 40.62160 | -83.31422 | 38758 ft | 508 kts | 55° |
| 2026-05-05 05:06 | 40.65780 | -83.23407 | 38764 ft | 508 kts | 55° |
| 2026-05-05 05:06 | 40.69388 | -83.15400 | 38761 ft | 508 kts | 56° |
| 2026-05-05 05:07 | 40.72980 | -83.07406 | 38774 ft | 508 kts | 56° |
| 2026-05-05 05:07 | 40.76572 | -82.99391 | 38768 ft | 508 kts | 56° |
| 2026-05-05 05:08 | 40.80183 | -82.91313 | 38766 ft | 508 kts | 56° |
| 2026-05-05 05:08 | 40.83752 | -82.83307 | 38768 ft | 508 kts | 56° |
| 2026-05-05 05:09 | 40.87321 | -82.75281 | 38767 ft | 508 kts | 56° |
| 2026-05-05 05:09 | 40.90905 | -82.67200 | 38774 ft | 508 kts | 56° |
| 2026-05-05 05:10 | 40.94462 | -82.59157 | 38774 ft | 508 kts | 56° |
| 2026-05-05 05:10 | 40.98013 | -82.51106 | 38772 ft | 508 kts | 56° |
| 2026-05-05 05:11 | 41.01581 | -82.42998 | 38765 ft | 508 kts | 56° |
| 2026-05-05 05:11 | 41.05116 | -82.34942 | 38755 ft | 508 kts | 57° |
| 2026-05-05 05:12 | 41.08669 | -82.26822 | 38742 ft | 508 kts | 57° |
| 2026-05-05 05:12 | 41.10468 | -82.22702 | 38744 ft | 508 kts | 57° |
| 2026-05-05 05:13 | 41.14000 | -82.14598 | 38738 ft | 508 kts | 57° |
| 2026-05-05 05:13 | 41.17524 | -82.06492 | 38743 ft | 508 kts | 57° |
| 2026-05-05 05:14 | 41.21061 | -81.98332 | 38740 ft | 508 kts | 57° |
| 2026-05-05 05:14 | 41.24565 | -81.90228 | 38731 ft | 507 kts | 57° |
| 2026-05-05 05:15 | 41.28083 | -81.82068 | 38725 ft | 507 kts | 57° |
| 2026-05-05 05:15 | 41.31565 | -81.73972 | 38727 ft | 507 kts | 57° |
| 2026-05-05 05:16 | 41.35062 | -81.65817 | 38723 ft | 508 kts | 57° |
| 2026-05-05 05:16 | 41.38572 | -81.57608 | 38718 ft | 507 kts | 57° |
| 2026-05-05 05:17 | 41.42030 | -81.49500 | 38750 ft | 507 kts | 58° |
| 2026-05-05 05:17 | 41.45527 | -81.41279 | 38756 ft | 507 kts | 58° |
| 2026-05-05 05:18 | 41.48986 | -81.33126 | 38752 ft | 507 kts | 58° |
| 2026-05-05 05:18 | 41.52449 | -81.24939 | 38754 ft | 507 kts | 58° |
| 2026-05-05 05:19 | 41.55929 | -81.16689 | 38728 ft | 507 kts | 58° |
| 2026-05-05 05:19 | 41.59374 | -81.08500 | 38732 ft | 507 kts | 58° |
| 2026-05-05 05:20 | 41.62811 | -81.00307 | 38747 ft | 507 kts | 58° |
| 2026-05-05 05:20 | 41.66257 | -80.92069 | 38750 ft | 507 kts | 58° |
| 2026-05-05 05:21 | 41.69710 | -80.83792 | 38751 ft | 507 kts | 58° |
| 2026-05-05 05:21 | 41.73134 | -80.75560 | 38757 ft | 508 kts | 58° |
| 2026-05-05 05:22 | 41.76552 | -80.67325 | 38755 ft | 508 kts | 58° |
| 2026-05-05 05:22 | 41.79200 | -80.58520 | 38752 ft | 512 kts | 78° |
| 2026-05-05 05:23 | 41.79466 | -80.49044 | 38745 ft | 511 kts | 98° |
| 2026-05-05 05:23 | 41.78442 | -80.39624 | 38754 ft | 511 kts | 99° |
| 2026-05-05 05:24 | 41.77377 | -80.30219 | 38767 ft | 512 kts | 99° |
| 2026-05-05 05:24 | 41.76375 | -80.20756 | 38775 ft | 513 kts | 99° |
| 2026-05-05 05:25 | 41.75408 | -80.11306 | 38773 ft | 514 kts | 98° |
| 2026-05-05 05:25 | 41.74435 | -80.01845 | 38781 ft | 514 kts | 99° |
| 2026-05-05 05:26 | 41.73443 | -79.92321 | 38779 ft | 515 kts | 99° |
| 2026-05-05 05:26 | 41.72444 | -79.82841 | 38785 ft | 515 kts | 99° |
| 2026-05-05 05:27 | 41.71440 | -79.73384 | 38796 ft | 515 kts | 99° |
| 2026-05-05 05:27 | 41.69916 | -79.59176 | 38792 ft | 515 kts | 99° |
| 2026-05-05 05:28 | 41.69059 | -79.51260 | 38808 ft | 514 kts | 99° |
| 2026-05-05 05:28 | 41.68024 | -79.41763 | 38790 ft | 514 kts | 99° |
| 2026-05-05 05:29 | 41.66989 | -79.32341 | 38812 ft | 513 kts | 99° |
| 2026-05-05 05:29 | 41.65949 | -79.22935 | 38803 ft | 513 kts | 99° |
| 2026-05-05 05:30 | 41.64894 | -79.13469 | 38815 ft | 513 kts | 99° |
| 2026-05-05 05:30 | 41.63841 | -79.04066 | 38807 ft | 513 kts | 99° |
| 2026-05-05 05:31 | 41.62779 | -78.94643 | 38814 ft | 513 kts | 99° |
| 2026-05-05 05:31 | 41.61701 | -78.85148 | 38811 ft | 514 kts | 99° |
| 2026-05-05 05:32 | 41.60287 | -78.75836 | 38806 ft | 512 kts | 105° |
| 2026-05-05 05:32 | 41.58524 | -78.66625 | 38629 ft | 510 kts | 106° |
| 2026-05-05 05:33 | 41.56781 | -78.57579 | 38749 ft | 501 kts | 106° |
| 2026-05-05 05:33 | 41.55086 | -78.48560 | 38821 ft | 501 kts | 105° |
| 2026-05-05 05:34 | 41.53397 | -78.39476 | 38818 ft | 503 kts | 105° |
| 2026-05-05 05:34 | 41.51710 | -78.30414 | 38819 ft | 505 kts | 105° |
| 2026-05-05 05:35 | 41.50014 | -78.21358 | 38814 ft | 506 kts | 105° |
| 2026-05-05 05:35 | 41.48291 | -78.12216 | 38817 ft | 506 kts | 105° |
| 2026-05-05 05:36 | 41.46578 | -78.03170 | 38814 ft | 506 kts | 105° |
| 2026-05-05 05:36 | 41.44842 | -77.94050 | 38811 ft | 506 kts | 105° |
| 2026-05-05 05:37 | 41.43116 | -77.85016 | 38813 ft | 505 kts | 106° |
| 2026-05-05 05:37 | 41.41366 | -77.75904 | 38814 ft | 504 kts | 106° |
| 2026-05-05 05:38 | 41.39628 | -77.66902 | 38808 ft | 500 kts | 106° |
| 2026-05-05 05:38 | 41.38767 | -77.62444 | 38659 ft | 491 kts | 106° |
| 2026-05-05 05:38 | 41.37928 | -77.58116 | 38241 ft | 487 kts | 106° |
| 2026-05-05 05:39 | 41.37081 | -77.53758 | 37708 ft | 484 kts | 106° |
| 2026-05-05 05:39 | 41.36236 | -77.49422 | 37163 ft | 483 kts | 106° |
| 2026-05-05 05:39 | 41.35388 | -77.45088 | 36634 ft | 480 kts | 106° |
| 2026-05-05 05:39 | 41.34560 | -77.40855 | 36098 ft | 471 kts | 106° |
| 2026-05-05 05:40 | 41.33741 | -77.36676 | 35565 ft | 458 kts | 105° |
| 2026-05-05 05:40 | 41.32951 | -77.32656 | 35046 ft | 447 kts | 106° |
| 2026-05-05 05:40 | 41.32162 | -77.28649 | 34574 ft | 446 kts | 105° |
| 2026-05-05 05:40 | 41.31362 | -77.24605 | 34126 ft | 456 kts | 105° |
| 2026-05-05 05:41 | 41.30551 | -77.20510 | 33647 ft | 457 kts | 105° |
| 2026-05-05 05:41 | 41.29753 | -77.16486 | 33118 ft | 455 kts | 105° |
| 2026-05-05 05:41 | 41.28943 | -77.12405 | 32589 ft | 454 kts | 105° |
| 2026-05-05 05:41 | 41.28134 | -77.08332 | 32068 ft | 452 kts | 105° |
| 2026-05-05 05:42 | 41.27339 | -77.04341 | 31565 ft | 451 kts | 106° |
| 2026-05-05 05:42 | 41.26533 | -77.00306 | 31068 ft | 449 kts | 106° |
| 2026-05-05 05:42 | 41.25729 | -76.96287 | 30569 ft | 448 kts | 106° |
| 2026-05-05 05:42 | 41.24930 | -76.92299 | 30073 ft | 446 kts | 106° |
| 2026-05-05 05:43 | 41.24128 | -76.88308 | 29547 ft | 444 kts | 106° |
| 2026-05-05 05:43 | 41.23341 | -76.84401 | 28994 ft | 442 kts | 106° |
| 2026-05-05 05:43 | 41.22545 | -76.80457 | 28442 ft | 441 kts | 106° |
| 2026-05-05 05:43 | 41.21749 | -76.76518 | 27896 ft | 442 kts | 106° |
| 2026-05-05 05:44 | 41.20945 | -76.72550 | 27363 ft | 448 kts | 106° |
| 2026-05-05 05:44 | 41.20125 | -76.68510 | 26813 ft | 452 kts | 106° |
| 2026-05-05 05:44 | 41.19304 | -76.64475 | 26279 ft | 451 kts | 106° |
| 2026-05-05 05:44 | 41.18496 | -76.60503 | 25768 ft | 450 kts | 106° |
| 2026-05-05 05:45 | 41.17677 | -76.56488 | 25279 ft | 448 kts | 107° |
| 2026-05-05 05:45 | 41.16860 | -76.52490 | 24788 ft | 448 kts | 107° |
| 2026-05-05 05:45 | 41.16035 | -76.48465 | 24312 ft | 453 kts | 107° |
| 2026-05-05 05:45 | 41.15210 | -76.44451 | 23876 ft | 456 kts | 107° |
| 2026-05-05 05:46 | 41.14373 | -76.40379 | 23408 ft | 453 kts | 107° |
| 2026-05-05 05:46 | 41.13548 | -76.36369 | 22864 ft | 449 kts | 107° |
| 2026-05-05 05:46 | 41.12727 | -76.32390 | 22342 ft | 444 kts | 107° |
| 2026-05-05 05:46 | 41.11913 | -76.28453 | 21827 ft | 441 kts | 107° |
| 2026-05-05 05:47 | 41.11112 | -76.24583 | 21322 ft | 437 kts | 107° |
| 2026-05-05 05:47 | 41.10306 | -76.20704 | 20841 ft | 434 kts | 107° |
| 2026-05-05 05:47 | 41.09501 | -76.16835 | 20366 ft | 431 kts | 108° |
| 2026-05-05 05:47 | 41.08712 | -76.13048 | 19922 ft | 429 kts | 108° |
| 2026-05-05 05:48 | 41.07920 | -76.09252 | 19459 ft | 427 kts | 108° |
| 2026-05-05 05:48 | 41.07128 | -76.05464 | 19015 ft | 425 kts | 108° |
| 2026-05-05 05:48 | 41.06335 | -76.01683 | 18579 ft | 424 kts | 108° |
| 2026-05-05 05:48 | 41.05554 | -75.97962 | 18109 ft | 422 kts | 108° |
| 2026-05-05 05:49 | 41.04763 | -75.94205 | 17624 ft | 420 kts | 108° |
| 2026-05-05 05:49 | 41.03980 | -75.90486 | 17155 ft | 419 kts | 108° |
| 2026-05-05 05:49 | 41.03202 | -75.86802 | 16682 ft | 418 kts | 108° |
| 2026-05-05 05:49 | 41.02417 | -75.83092 | 16225 ft | 417 kts | 108° |
| 2026-05-05 05:50 | 41.01635 | -75.79400 | 15793 ft | 413 kts | 108° |
| 2026-05-05 05:50 | 41.00868 | -75.75782 | 15360 ft | 408 kts | 108° |
| 2026-05-05 05:50 | 41.00101 | -75.72172 | 14931 ft | 404 kts | 108° |
| 2026-05-05 05:50 | 40.99351 | -75.68645 | 14540 ft | 400 kts | 108° |
| 2026-05-05 05:51 | 40.98598 | -75.65115 | 14119 ft | 397 kts | 108° |
| 2026-05-05 05:51 | 40.97846 | -75.61597 | 13723 ft | 394 kts | 107° |
| 2026-05-05 05:51 | 40.97110 | -75.58153 | 13280 ft | 391 kts | 107° |
| 2026-05-05 05:51 | 40.96367 | -75.54681 | 12823 ft | 389 kts | 107° |
| 2026-05-05 05:52 | 40.95626 | -75.51228 | 12376 ft | 386 kts | 107° |
| 2026-05-05 05:52 | 40.94903 | -75.47863 | 11962 ft | 383 kts | 107° |
| 2026-05-05 05:52 | 40.94171 | -75.44468 | 11537 ft | 381 kts | 107° |
| 2026-05-05 05:52 | 40.93447 | -75.41109 | 11121 ft | 379 kts | 107° |
| 2026-05-05 05:53 | 40.92726 | -75.37766 | 10697 ft | 377 kts | 107° |
| 2026-05-05 05:53 | 40.92014 | -75.34475 | 10287 ft | 374 kts | 107° |
| 2026-05-05 05:53 | 40.91296 | -75.31160 | 9869 ft | 372 kts | 107° |
| 2026-05-05 05:53 | 40.90586 | -75.27881 | 9436 ft | 369 kts | 108° |
| 2026-05-05 05:54 | 40.89879 | -75.24629 | 9011 ft | 366 kts | 108° |
| 2026-05-05 05:54 | 40.89185 | -75.21445 | 8537 ft | 364 kts | 108° |
| 2026-05-05 05:54 | 40.88489 | -75.18251 | 8115 ft | 352 kts | 108° |
| 2026-05-05 05:54 | 40.87834 | -75.15238 | 7669 ft | 335 kts | 108° |
| 2026-05-05 05:55 | 40.87201 | -75.12331 | 7221 ft | 321 kts | 109° |
| 2026-05-05 05:55 | 40.86598 | -75.09561 | 6967 ft | 303 kts | 109° |
| 2026-05-05 05:55 | 40.86039 | -75.07005 | 6938 ft | 284 kts | 110° |
| 2026-05-05 05:55 | 40.85494 | -75.04529 | 6682 ft | 277 kts | 110° |
| 2026-05-05 05:56 | 40.84954 | -75.02088 | 6490 ft | 275 kts | 110° |
| 2026-05-05 05:56 | 40.84415 | -74.99644 | 6298 ft | 278 kts | 110° |
| 2026-05-05 05:56 | 40.83884 | -74.97228 | 6098 ft | 276 kts | 110° |
| 2026-05-05 05:56 | 40.83348 | -74.94794 | 5969 ft | 273 kts | 110° |
| 2026-05-05 05:57 | 40.82821 | -74.92404 | 5887 ft | 268 kts | 110° |
| 2026-05-05 05:57 | 40.82544 | -74.89968 | 5785 ft | 272 kts | 95° |
| 2026-05-05 05:57 | 40.82551 | -74.87451 | 5738 ft | 279 kts | 91° |
| 2026-05-05 05:57 | 40.82621 | -74.84862 | 5672 ft | 281 kts | 90° |
| 2026-05-05 05:58 | 40.82692 | -74.82310 | 5617 ft | 280 kts | 90° |
| 2026-05-05 05:58 | 40.82754 | -74.79720 | 5511 ft | 281 kts | 91° |
| 2026-05-05 05:58 | 40.82809 | -74.77122 | 5377 ft | 283 kts | 91° |
| 2026-05-05 05:58 | 40.82859 | -74.74553 | 5249 ft | 283 kts | 91° |
| 2026-05-05 05:59 | 40.82904 | -74.71947 | 5117 ft | 281 kts | 91° |
| 2026-05-05 05:59 | 40.82944 | -74.69361 | 4998 ft | 279 kts | 92° |
| 2026-05-05 05:59 | 40.82979 | -74.66812 | 4871 ft | 279 kts | 92° |
| 2026-05-05 05:59 | 40.83011 | -74.64275 | 4735 ft | 279 kts | 92° |
| 2026-05-05 06:00 | 40.83043 | -74.61706 | 4619 ft | 278 kts | 92° |
| 2026-05-05 06:00 | 40.83077 | -74.59140 | 4510 ft | 279 kts | 92° |
| 2026-05-05 06:00 | 40.83107 | -74.56573 | 4364 ft | 279 kts | 93° |
| 2026-05-05 06:00 | 40.83135 | -74.54035 | 4258 ft | 279 kts | 93° |
| 2026-05-05 06:01 | 40.83162 | -74.51460 | 4115 ft | 280 kts | 93° |
| 2026-05-05 06:01 | 40.83187 | -74.48892 | 4004 ft | 279 kts | 93° |
| 2026-05-05 06:01 | 40.83212 | -74.46349 | 3872 ft | 279 kts | 93° |
| 2026-05-05 06:01 | 40.83238 | -74.43769 | 3755 ft | 278 kts | 93° |
| 2026-05-05 06:02 | 40.83264 | -74.41210 | 3647 ft | 278 kts | 94° |
| 2026-05-05 06:02 | 40.83290 | -74.38697 | 3539 ft | 277 kts | 94° |
| 2026-05-05 06:02 | 40.83316 | -74.36138 | 3440 ft | 276 kts | 94° |
| 2026-05-05 06:02 | 40.83340 | -74.33602 | 3335 ft | 275 kts | 94° |
| 2026-05-05 06:03 | 40.83367 | -74.31126 | 3209 ft | 268 kts | 94° |
| 2026-05-05 06:03 | 40.83404 | -74.28733 | 3110 ft | 251 kts | 94° |
| 2026-05-05 06:03 | 40.83581 | -74.26474 | 3110 ft | 248 kts | 84° |
| 2026-05-05 06:03 | 40.83931 | -74.24265 | 3097 ft | 242 kts | 82° |
| 2026-05-05 06:04 | 40.84296 | -74.22100 | 3047 ft | 246 kts | 82° |
| 2026-05-05 06:04 | 40.84574 | -74.19869 | 2989 ft | 241 kts | 89° |
| 2026-05-05 06:04 | 40.84767 | -74.17724 | 2962 ft | 234 kts | 89° |
| 2026-05-05 06:04 | 40.84906 | -74.15617 | 2991 ft | 228 kts | 95° |
| 2026-05-05 06:05 | 40.84883 | -74.13530 | 2971 ft | 226 kts | 100° |
| 2026-05-05 06:05 | 40.84705 | -74.11500 | 2973 ft | 215 kts | 110° |
| 2026-05-05 06:05 | 40.84027 | -74.09910 | 2980 ft | 189 kts | 150° |
| 2026-05-05 06:05 | 40.82902 | -74.09319 | 2781 ft | 164 kts | 189° |
| 2026-05-05 06:06 | 40.81840 | -74.09499 | 2622 ft | 146 kts | 198° |
| 2026-05-05 06:06 | 40.80903 | -74.09816 | 2426 ft | 129 kts | 204° |
| 2026-05-05 06:06 | 40.80095 | -74.10184 | 2265 ft | 121 kts | 205° |
| 2026-05-05 06:06 | 40.79298 | -74.10550 | 2114 ft | 123 kts | 207° |
| 2026-05-05 06:07 | 40.78513 | -74.10983 | 1950 ft | 121 kts | 210° |
| 2026-05-05 06:07 | 40.77736 | -74.11456 | 1780 ft | 124 kts | 210° |
| 2026-05-05 06:07 | 40.76956 | -74.11945 | 1634 ft | 123 kts | 209° |
| 2026-05-05 06:07 | 40.76191 | -74.12431 | 1442 ft | 120 kts | 210° |
| 2026-05-05 06:08 | 40.75458 | -74.12898 | 1271 ft | 114 kts | 210° |
| 2026-05-05 06:08 | 40.74755 | -74.13349 | 1120 ft | 119 kts | 208° |
| 2026-05-05 06:08 | 40.73988 | -74.13837 | 952 ft | 123 kts | 208° |
| 2026-05-05 06:08 | 40.73215 | -74.14351 | 824 ft | 127 kts | 208° |
| 2026-05-05 06:09 | 40.72414 | -74.14873 | 644 ft | 129 kts | 206° |
| 2026-05-05 06:09 | 40.71597 | -74.15381 | 462 ft | 133 kts | 205° |
| 2026-05-05 06:09 | 40.70746 | -74.15916 | 239 ft | 135 kts | 204° |
| 2026-05-05 06:09 | 40.69904 | -74.16447 | 50 ft | 129 kts | 205° |
| 2026-05-05 06:10 | 40.69142 | -74.16925 | 25 ft | 112 kts | 206° |
| 2026-05-05 06:10 | 40.68635 | -74.17244 | 27 ft | 31 kts | 205° |
| 2026-05-05 06:10 | 40.68448 | -74.17380 | 32 ft | 32 kts | 212° |
| 2026-05-05 06:10 | 40.68321 | -74.17515 | 30 ft | 16 kts | 230° |
| 2026-05-05 06:11 | 40.68302 | -74.17549 | 27 ft | 0 kts | 234° |
| 2026-05-05 06:11 | 40.68296 | -74.17561 | 27 ft | 6 kts | 234° |
| 2026-05-05 06:11 | 40.68306 | -74.17627 | 26 ft | 11 kts | 338° |
| 2026-05-05 06:11 | 40.68409 | -74.17558 | 27 ft | 24 kts | 32° |
| 2026-05-05 06:12 | 40.68571 | -74.17450 | 29 ft | 27 kts | 25° |
| 2026-05-05 06:12 | 40.68753 | -74.17333 | 27 ft | 33 kts | 26° |
| 2026-05-05 06:12 | 40.68973 | -74.17194 | 23 ft | 36 kts | 25° |
| 2026-05-05 06:12 | 40.69190 | -74.17056 | 23 ft | 33 kts | 26° |
| 2026-05-05 06:13 | 40.69393 | -74.16976 | 28 ft | 30 kts | 5° |
| 2026-05-05 06:13 | 40.69580 | -74.17001 | 27 ft | 25 kts | 347° |
| 2026-05-05 06:13 | 40.69740 | -74.17091 | 28 ft | 25 kts | 328° |
| 2026-05-05 06:13 | 40.69873 | -74.17241 | 27 ft | 25 kts | 313° |
| 2026-05-05 06:14 | 40.69959 | -74.17435 | 28 ft | 23 kts | 286° |
| 2026-05-05 06:14 | 40.69958 | -74.17610 | 29 ft | 18 kts | 238° |
| 2026-05-05 06:14 | 40.69848 | -74.17687 | 26 ft | 18 kts | 200° |
| 2026-05-05 06:14 | 40.69735 | -74.17698 | 29 ft | 9 kts | 168° |
| 2026-05-05 06:15 | 40.69691 | -74.17684 | 29 ft | 6 kts | 166° |
| 2026-05-05 06:15 | 40.69686 | -74.17682 | 28 ft | 0 kts | 167° |